createdAt,value
2022-12-19T00:02:57.269Z,1.30
2022-12-19T00:07:00.453Z,1.30
2022-12-19T00:11:03.632Z,1.30
2022-12-19T00:15:07.096Z,1.30
2022-12-19T00:19:12.322Z,1.30
2022-12-19T00:23:15.128Z,1.30
2022-12-19T00:27:17.987Z,1.30
2022-12-19T00:31:21.766Z,1.30
2022-12-19T00:35:26.058Z,1.30
2022-12-19T00:39:28.942Z,1.30
2022-12-19T00:43:31.885Z,1.30
2022-12-19T00:47:35.810Z,1.30
2022-12-19T00:51:40.057Z,1.30
2022-12-19T00:55:42.867Z,1.40
2022-12-19T00:59:45.709Z,1.30
2022-12-19T01:04:26.154Z,1.30
2022-12-19T01:08:13.111Z,1.40
2022-12-19T01:12:36.016Z,1.40
2022-12-19T01:16:38.877Z,1.40
2022-12-19T01:20:42.412Z,1.40
2022-12-19T01:24:46.636Z,1.40
2022-12-19T01:28:49.482Z,1.40
2022-12-19T01:32:52.367Z,1.40
2022-12-19T01:36:55.239Z,1.40
2022-12-19T01:40:59.449Z,1.40
2022-12-19T01:45:27.672Z,1.50
2022-12-19T01:49:36.281Z,1.50
2022-12-19T01:53:47.440Z,1.50
2022-12-19T01:57:54.633Z,1.50
2022-12-19T02:02:01.421Z,1.50
2022-12-19T02:06:05.586Z,1.60
2022-12-19T02:10:08.691Z,1.60
2022-12-19T02:14:12.998Z,1.60
2022-12-19T02:18:19.392Z,1.60
2022-12-19T02:22:28.192Z,1.60
2022-12-19T02:26:43.891Z,1.60
2022-12-19T02:30:54.596Z,1.70
2022-12-19T02:34:59.391Z,1.70
2022-12-19T02:39:22.879Z,1.70
2022-12-19T02:43:26.749Z,1.70
2022-12-19T02:47:32.214Z,1.80
2022-12-19T02:51:35.036Z,1.80
2022-12-19T02:55:40.657Z,1.80
2022-12-19T02:59:52.567Z,1.80
2022-12-19T03:04:04.931Z,1.80
2022-12-19T03:08:08.652Z,1.90
2022-12-19T03:12:17.888Z,1.90
2022-12-19T03:16:20.894Z,1.90
2022-12-19T03:20:27.893Z,2.00
2022-12-19T03:24:31.119Z,2.00
2022-12-19T03:28:38.276Z,2.00
2022-12-19T03:32:43.648Z,2.10
2022-12-19T03:36:49.140Z,2.10
2022-12-19T03:40:52.216Z,2.10
2022-12-19T03:44:56.644Z,2.20
2022-12-19T03:48:59.700Z,2.20
2022-12-19T03:53:10.423Z,2.20
2022-12-19T03:57:15.938Z,2.20
2022-12-19T04:01:19.378Z,2.20
2022-12-19T04:05:23.205Z,2.30
2022-12-19T04:09:27.527Z,2.30
2022-12-19T04:13:33.765Z,2.30
2022-12-19T04:17:40.901Z,2.30
2022-12-19T04:21:46.215Z,2.30
2022-12-19T04:25:53.329Z,2.30
2022-12-19T04:29:57.522Z,2.40
2022-12-19T04:34:00.387Z,2.40
2022-12-19T04:38:03.384Z,2.40
2022-12-19T04:42:08.039Z,2.50
2022-12-19T04:46:10.968Z,2.50
2022-12-19T04:50:14.752Z,2.50
2022-12-19T04:54:17.614Z,2.60
2022-12-19T04:58:22.213Z,2.60
2022-12-19T05:02:25.274Z,2.60
2022-12-19T05:06:28.380Z,2.70
2022-12-19T05:10:31.230Z,2.70
2022-12-19T05:14:35.467Z,2.80
2022-12-19T05:18:38.793Z,2.80
2022-12-19T05:22:41.622Z,2.90
2022-12-19T05:30:52.186Z,2.90
2022-12-19T05:34:55.543Z,2.90
2022-12-19T05:38:58.382Z,2.90
2022-12-19T05:43:01.713Z,2.90
2022-12-19T05:47:06.003Z,3.00
2022-12-19T05:51:08.887Z,2.90
2022-12-19T05:55:11.853Z,2.90
2022-12-19T05:59:14.793Z,2.90
2022-12-19T06:03:19.036Z,2.90
2022-12-19T06:07:22.025Z,2.90
2022-12-19T06:11:25.390Z,2.90
2022-12-19T06:15:28.253Z,2.80
2022-12-19T06:19:32.566Z,2.90
2022-12-19T06:23:36.577Z,2.90
2022-12-19T06:27:39.936Z,2.90
2022-12-19T06:31:42.831Z,2.90
2022-12-19T06:35:47.103Z,2.80
2022-12-19T06:39:51.378Z,2.90
2022-12-19T06:43:54.253Z,2.90
2022-12-19T06:47:57.195Z,2.80
2022-12-19T06:52:06.299Z,2.80
2022-12-19T06:56:12.962Z,2.80
2022-12-19T07:00:16.919Z,2.80
2022-12-19T07:04:22.539Z,2.80
2022-12-19T07:08:26.723Z,2.80
2022-12-19T07:12:29.561Z,2.80
2022-12-19T07:16:32.498Z,2.80
2022-12-19T07:20:35.572Z,2.80
2022-12-19T07:24:39.890Z,2.80
2022-12-19T07:28:44.499Z,2.80
2022-12-19T07:32:47.362Z,2.80
2022-12-19T07:36:50.256Z,2.80
2022-12-19T07:40:54.507Z,2.80
2022-12-19T07:44:57.395Z,2.80
2022-12-19T07:49:00.238Z,2.80
2022-12-19T07:53:03.722Z,2.80
2022-12-19T07:57:07.998Z,2.90
2022-12-19T08:01:12.211Z,2.80
2022-12-19T08:05:15.186Z,2.90
2022-12-19T08:09:18.051Z,2.90
2022-12-19T08:13:22.258Z,2.90
2022-12-19T08:17:26.239Z,2.90
2022-12-19T08:21:30.355Z,3.00
2022-12-19T08:25:33.583Z,3.00
2022-12-19T08:29:37.789Z,3.10
2022-12-19T08:33:40.647Z,3.10
2022-12-19T08:37:43.497Z,3.10
2022-12-19T08:41:46.332Z,3.20
2022-12-19T08:45:51.239Z,3.20
2022-12-19T08:49:54.659Z,3.20
2022-12-19T08:53:57.662Z,3.30
2022-12-19T08:58:00.579Z,3.30
2022-12-19T09:02:06.547Z,3.40
2022-12-19T09:06:15.604Z,3.40
2022-12-19T09:10:22.081Z,3.40
2022-12-19T09:14:24.960Z,3.50
2022-12-19T09:18:29.184Z,3.50
2022-12-19T09:22:32.090Z,3.60
2022-12-19T09:26:34.993Z,3.60
2022-12-19T09:30:37.884Z,3.70
2022-12-19T09:34:42.112Z,3.70
2022-12-19T09:38:45.260Z,3.80
2022-12-19T09:42:53.419Z,3.80
2022-12-19T09:51:10.038Z,4.00
2022-12-19T09:59:23.263Z,4.20
2022-12-19T10:03:38.678Z,4.20
2022-12-19T10:08:07.174Z,4.20
2022-12-19T10:12:45.781Z,4.30
2022-12-19T10:17:02.036Z,4.40
2022-12-19T10:21:12.721Z,4.40
2022-12-19T10:25:24.477Z,4.50
2022-12-19T10:29:40.683Z,4.50
2022-12-19T10:33:45.442Z,4.60
2022-12-19T10:37:50.906Z,4.70
2022-12-19T10:41:56.980Z,4.70
2022-12-19T10:46:02.618Z,4.80
2022-12-19T10:50:09.737Z,4.90
2022-12-19T10:54:12.881Z,5.00
2022-12-19T10:58:22.110Z,5.10
2022-12-19T11:02:35.445Z,5.10
2022-12-19T11:06:44.872Z,5.20
2022-12-19T11:11:12.629Z,5.30
2022-12-19T11:19:04.668Z,5.30
2022-12-19T11:29:30.854Z,5.30
2022-12-19T11:29:34.919Z,5.40
2022-12-19T11:30:39.207Z,5.40
2022-12-19T11:33:07.299Z,5.40
2022-12-19T11:37:19.636Z,5.50
2022-12-19T11:41:24.900Z,5.50
2022-12-19T11:45:33.356Z,5.50
2022-12-19T11:49:38.239Z,5.60
2022-12-19T11:53:46.846Z,5.60
2022-12-19T11:57:49.861Z,5.60
2022-12-19T12:02:07.140Z,5.70
2022-12-19T12:06:12.956Z,5.70
2022-12-19T12:14:24.108Z,5.80
2022-12-19T12:24:37.861Z,5.80
2022-12-19T12:31:07.146Z,5.90
2022-12-19T12:31:22.292Z,5.80
2022-12-19T12:31:49.890Z,6.00
2022-12-19T12:35:32.948Z,6.00
2022-12-19T12:42:05.948Z,6.10
2022-12-19T12:46:13.318Z,6.10
2022-12-19T12:50:17.605Z,6.20
2022-12-19T12:54:20.746Z,6.20
2022-12-19T12:59:03.196Z,6.20
2022-12-19T13:03:12.230Z,6.20
2022-12-19T13:07:25.547Z,6.20
2022-12-19T13:11:56.908Z,6.20
2022-12-19T13:16:00.009Z,6.20
2022-12-19T13:20:17.752Z,6.20
2022-12-19T13:24:22.423Z,6.20
2022-12-19T13:28:43.690Z,6.20
2022-12-19T13:33:17.009Z,6.20
2022-12-19T13:39:48.681Z,6.20
2022-12-19T13:42:19.772Z,6.20
2022-12-19T13:46:33.861Z,6.20
2022-12-19T13:50:38.495Z,6.20
2022-12-19T13:54:47.874Z,6.20
2022-12-19T13:58:53.375Z,6.20
2022-12-19T14:02:56.813Z,6.20
2022-12-19T14:07:01.495Z,6.20
2022-12-19T14:11:36.979Z,6.20
2022-12-19T14:15:33.879Z,6.20
2022-12-19T14:19:41.306Z,6.20
2022-12-19T14:23:44.661Z,6.20
2022-12-19T14:28:24.225Z,6.30
2022-12-19T14:33:40.034Z,6.30
2022-12-19T14:36:40.756Z,6.30
2022-12-19T14:41:08.577Z,6.30
2022-12-19T14:54:02.060Z,6.40
2022-12-19T14:54:06.782Z,6.40
2022-12-19T14:58:55.421Z,6.50
2022-12-19T15:03:01.430Z,6.50
2022-12-19T15:07:12.420Z,6.50
2022-12-19T15:11:53.641Z,6.50
2022-12-19T15:16:02.279Z,6.50
2022-12-19T15:20:05.606Z,6.50
2022-12-19T15:24:10.018Z,6.50
2022-12-19T15:28:14.358Z,6.40
2022-12-19T15:32:18.066Z,6.40
2022-12-19T15:36:20.959Z,6.40
2022-12-19T15:40:25.171Z,6.40
2022-12-19T15:44:31.296Z,6.40
2022-12-19T15:48:34.718Z,6.40
2022-12-19T15:52:37.552Z,6.40
2022-12-19T15:56:42.888Z,6.40
2022-12-19T16:00:49.237Z,6.40
2022-12-19T16:04:56.952Z,6.40
2022-12-19T16:09:10.128Z,6.40
2022-12-19T16:13:17.276Z,6.40
2022-12-19T16:17:22.327Z,6.40
2022-12-19T16:21:33.714Z,6.40
2022-12-19T16:25:39.024Z,6.40
2022-12-19T16:29:43.275Z,6.40
2022-12-19T16:33:46.117Z,6.40
2022-12-19T16:37:49.324Z,6.40
2022-12-19T16:41:52.261Z,6.40
2022-12-19T16:46:00.749Z,6.40
2022-12-19T16:50:08.496Z,6.40
2022-12-19T16:54:13.018Z,6.40
2022-12-19T16:58:17.230Z,6.40
2022-12-19T17:02:38.406Z,6.40
2022-12-19T17:06:41.964Z,6.50
2022-12-19T17:10:46.399Z,6.50
2022-12-19T17:14:49.763Z,6.50
2022-12-19T17:18:54.088Z,6.50
2022-12-19T17:22:56.941Z,6.60
2022-12-19T17:26:59.789Z,6.50
2022-12-19T17:31:05.259Z,6.50
2022-12-19T17:35:15.365Z,6.50
2022-12-19T17:39:20.251Z,6.50
2022-12-19T17:43:23.864Z,6.40
2022-12-19T17:47:27.062Z,6.40
2022-12-19T17:51:31.295Z,6.40
2022-12-19T17:55:34.479Z,6.40
2022-12-19T17:59:37.348Z,6.40
2022-12-19T18:03:40.323Z,6.40
2022-12-19T18:07:44.699Z,6.30
2022-12-19T18:11:47.665Z,6.30
2022-12-19T18:15:51.047Z,6.30
2022-12-19T18:19:54.000Z,6.30
2022-12-19T18:23:58.369Z,6.30
2022-12-19T18:28:01.647Z,6.30
2022-12-19T18:32:04.526Z,6.30
2022-12-19T18:36:08.383Z,6.20
2022-12-19T18:40:22.096Z,6.20
2022-12-19T18:44:27.807Z,6.20
2022-12-19T18:48:32.805Z,6.20
2022-12-19T18:52:35.643Z,6.20
2022-12-19T18:56:39.956Z,6.20
2022-12-19T19:00:43.374Z,6.20
2022-12-19T19:04:48.012Z,6.30
2022-12-19T19:08:52.054Z,6.30
2022-12-19T19:12:56.644Z,6.30
2022-12-19T19:16:59.704Z,6.30
2022-12-19T19:21:02.642Z,6.30
2022-12-19T19:25:06.843Z,6.40
2022-12-19T19:29:13.517Z,6.40
2022-12-19T19:33:18.182Z,6.40
2022-12-19T19:37:21.052Z,6.40
2022-12-19T19:41:24.210Z,6.40
2022-12-19T19:45:28.806Z,6.40
2022-12-19T19:49:31.739Z,6.40
2022-12-19T19:53:36.039Z,6.30
2022-12-19T19:57:38.964Z,6.30
2022-12-19T20:01:43.325Z,6.30
2022-12-19T20:05:47.128Z,6.30
2022-12-19T20:09:50.171Z,6.30
2022-12-19T20:13:53.209Z,6.30
2022-12-19T20:17:57.872Z,6.40
2022-12-19T20:22:02.411Z,6.40
2022-12-19T20:26:05.884Z,6.50
2022-12-19T20:30:09.368Z,6.50
2022-12-19T20:34:13.545Z,6.50
2022-12-19T20:38:16.526Z,6.50
2022-12-19T20:42:19.560Z,6.50
2022-12-19T20:46:22.634Z,6.50
2022-12-19T20:50:26.869Z,6.50
2022-12-19T20:54:29.683Z,6.50
2022-12-19T20:58:33.770Z,6.50
2022-12-19T21:03:08.382Z,6.50
2022-12-19T21:07:00.985Z,6.50
2022-12-19T21:11:05.310Z,6.50
2022-12-19T21:15:08.731Z,6.50
2022-12-19T21:19:11.704Z,6.50
2022-12-19T21:23:15.932Z,6.60
2022-12-19T21:27:18.792Z,6.60
2022-12-19T21:31:22.663Z,6.60
2022-12-19T21:35:25.581Z,6.70
2022-12-19T21:39:29.760Z,6.70
2022-12-19T21:43:33.379Z,6.80
2022-12-19T21:47:39.396Z,6.90
2022-12-19T21:51:42.264Z,6.90
2022-12-19T21:55:47.085Z,7.00
2022-12-19T21:59:49.941Z,7.00
2022-12-19T22:03:53.175Z,7.10
2022-12-19T22:07:56.155Z,7.10
2022-12-19T22:12:00.365Z,7.10
2022-12-19T22:16:03.522Z,7.10
2022-12-19T22:20:08.996Z,7.10
2022-12-19T22:24:13.274Z,7.10
2022-12-19T22:28:17.511Z,7.10
2022-12-19T22:32:20.341Z,7.10
2022-12-19T22:36:28.024Z,7.10
2022-12-19T22:40:33.208Z,7.20
2022-12-19T22:44:38.500Z,7.20
2022-12-19T22:52:44.727Z,7.30
2022-12-19T22:56:50.668Z,7.40
2022-12-19T23:00:54.880Z,7.50
2022-12-19T23:04:57.736Z,7.60
2022-12-19T23:09:01.179Z,7.70
2022-12-19T23:13:04.099Z,7.70
2022-12-19T23:17:08.391Z,7.80
2022-12-19T23:25:14.457Z,7.90
2022-12-19T23:29:17.316Z,7.90
2022-12-19T23:33:21.546Z,7.90
2022-12-19T23:37:24.391Z,8.00
2022-12-19T23:41:27.236Z,8.00
2022-12-19T23:45:30.247Z,8.00
2022-12-19T23:49:34.990Z,8.10
2022-12-19T23:53:37.862Z,8.10
2022-12-19T23:57:40.778Z,8.10
